Scottsboro, AL (35769)

11:45 PM CDT on July 28, 2014 (GMT -0500)
Scottsboro (K4A6) Elev 650 ft | 34.69 °N, 86.01 °W | Change Station

Current weather conditions updated 10 minutes ago

Partly Cloudy
Partly Cloudy
66 °F
Feels Like 66 °F
N
0
Wind Variable Wind from North

Tomorrow is forecast to be nearly the same temperature as today.

Today
High -- | Low -- °F
--% Chance of Precip.
Yesterday
High -- | Low -- °F
Precip. -- in
5:51 AM 7:49 PM
Waxing Crescent, 5% visible
Pressure 30.03 in
Visibility 10.0 miles
Clouds Few 4300 ft
Dew Point 64 °F
Humidity 94%
Rainfall 0.01 in
Snow Depth Not available.
UV 0 out of 12
Pollen 4.00 out of 12
Air Quality Not available.
Flu Activity Not available.
METAR K4A6 290435Z AUTO 00000KT 10SM FEW043 19/18 A3003 RMK AO2

More Conditions Fewer Conditions

Pressure 30.03 in
Visibility 10.0 miles
Clouds Few 4300 ft
Dew Point 64 °F
Humidity 94%
Rainfall 0.01 in
Snow Depth Not available.
UV 0 out of 12
Pollen 4.00 out of 12
Air Quality Not available.
Flu Activity Not available.
METAR K4A6 290435Z AUTO 00000KT 10SM FEW043 19/18 A3003 RMK AO2

More Conditions Fewer Conditions

10-Day Weather Forecast

Almanac

Astronomy

Jul. 28, 2014 Rise Set
Actual Time 5:51 AM CDT 7:49 PM CDT
Civil Twilight 5:23 AM CDT 8:17 PM CDT
Nautical Twilight 4:49 AM CDT 8:51 PM CDT
Astronomical Twilight 4:13 AM CDT 9:27 PM CDT
Moon 7:26 AM CDT (7/28) 8:38 PM CDT (7/28)
Length of Visible Light 14h 53m
Length of Day
13h 58m
Tomorrow will be 1m 31s shorter.
Waxing Crescent, 5% of the Moon is Illuminated
Jul 29
Waxing Crescent
Aug 3
First Quarter
Aug 10
Full
Aug 17
Last Quarter
Aug 25
New

Yesterday's Extremes

State Highs State Lows

Community

WunderPhotos

Upload Photos

1,738,634 photos uploaded!

Nearby

Snow Depth

Station Depth Elevation
No new snow has been reported.

Earthquake Activity

City Distance Mag. Time & Date
No recent earthquake activity has been reported nearby.
Minimum magnitude displayed is 2.5.

Coastal Water Temperatures

Place Temperature
No Stations Reporting

Nearby Weather Stations

Station Location Temp. Heat Index Dew Point Humidity Wind Precip. Elev Updated Type
HCN SCOTTSBORO AIRPORT 2 NE AL , Hollywood, AL 67 °F - - - North  at  - 0.00 in / hr 636 ft 10:35 PM CDT MADIS
Marshall County District 2, Grant, AL 68.9 °F - 62 °F 79% NNW  at  0.0 mph - / hr 1217 ft 11:44 PM CDT Normal
Rock Creek Bloodhounds, Fort Payne, AL 64.0 °F - 61 °F 89% NNW  at  0.0 mph 0.00 in / hr 1162 ft 11:45 PM CDT Rapid Fire
Keel Mountain, Gurley, AL 66.0 °F - 53 °F 62% North  at  0.0 mph 0.00 in / hr 1572 ft 11:42 PM CDT Normal
Gurley, Gurley, AL 64.5 °F - 63 °F 96% SW  at  0.0 mph 0.00 in / hr 745 ft 11:45 PM CDT Normal
Arbor Woods, Hampton Cove, AL 71.4 °F 77 °F 53 °F 52% North  at  0.7 mph 0.00 in / hr 614 ft 11:45 PM CDT Rapid Fire
Desoto Country Club, Fort Payne, AL 66.4 °F - 63 °F 90% ESE  at  0.0 mph - / hr 978 ft 11:41 PM CDT Normal

Show More Stations Show Fewer Stations